createdAt,value
2018-08-20T00:01:23.391Z,7.67
2018-08-20T00:03:52.052Z,9.13
2018-08-20T00:06:20.515Z,7.80
2018-08-20T00:08:49.016Z,8.17
2018-08-20T00:11:17.501Z,8.77
2018-08-20T00:13:45.973Z,7.57
2018-08-20T00:16:14.441Z,6.63
2018-08-20T00:18:42.917Z,6.43
2018-08-20T00:21:11.360Z,6.53
2018-08-20T00:23:39.878Z,6.30
2018-08-20T00:26:08.363Z,5.53
2018-08-20T00:28:36.840Z,5.90
2018-08-20T00:31:05.308Z,5.30
2018-08-20T00:33:33.768Z,6.47
2018-08-20T00:36:02.392Z,5.50
2018-08-20T00:38:31.127Z,6.37
2018-08-20T00:40:59.595Z,5.47
2018-08-20T00:43:28.111Z,6.13
2018-08-20T00:45:56.867Z,5.80
2018-08-20T00:48:25.329Z,5.70
2018-08-20T00:50:53.805Z,5.10
2018-08-20T00:53:23.255Z,6.23
2018-08-20T00:55:51.744Z,6.00
2018-08-20T00:58:20.187Z,5.80
2018-08-20T01:00:48.674Z,4.73
2018-08-20T01:03:17.131Z,5.57
2018-08-20T01:05:45.584Z,5.00
2018-08-20T01:08:14.068Z,5.90
2018-08-20T01:10:42.576Z,5.77
2018-08-20T01:13:11.044Z,4.90
2018-08-20T01:15:39.523Z,5.23
2018-08-20T01:18:08.020Z,4.80
2018-08-20T01:20:36.501Z,5.50
2018-08-20T01:23:04.984Z,6.80
2018-08-20T01:25:33.435Z,5.53
2018-08-20T01:28:01.918Z,6.47
2018-08-20T01:30:30.354Z,6.90
2018-08-20T01:33:04.220Z,5.80
2018-08-20T01:35:32.712Z,5.70
2018-08-20T01:38:01.230Z,5.50
2018-08-20T01:40:30.178Z,5.37
2018-08-20T01:42:58.617Z,5.63
2018-08-20T01:45:27.140Z,5.30
2018-08-20T01:47:55.612Z,5.50
2018-08-20T01:50:24.091Z,5.83
2018-08-20T01:52:52.563Z,5.87
2018-08-20T01:55:21.064Z,5.43
2018-08-20T01:57:49.592Z,5.17
2018-08-20T02:00:18.068Z,5.53
2018-08-20T02:02:53.925Z,5.40
2018-08-20T02:05:22.484Z,5.87
2018-08-20T02:07:51.449Z,6.33
2018-08-20T02:10:20.044Z,6.53
2018-08-20T02:12:48.516Z,5.97
2018-08-20T02:15:17.017Z,6.20
2018-08-20T02:17:45.509Z,5.40
2018-08-20T02:20:14.004Z,5.17
2018-08-20T02:22:42.463Z,5.23
2018-08-20T02:25:10.940Z,5.87
2018-08-20T02:27:39.396Z,5.90
2018-08-20T02:30:08.105Z,4.90
2018-08-20T02:32:36.979Z,5.90
2018-08-20T02:35:05.845Z,5.40
2018-08-20T02:37:39.842Z,5.80
2018-08-20T02:40:08.503Z,5.33
2018-08-20T02:42:37.082Z,5.50
2018-08-20T02:45:06.534Z,5.70
2018-08-20T02:47:35.124Z,5.57
2018-08-20T02:50:03.778Z,5.50
2018-08-20T02:52:32.260Z,5.67
2018-08-20T02:55:00.744Z,5.53
2018-08-20T02:57:29.187Z,5.27
2018-08-20T02:59:57.661Z,5.63
2018-08-20T03:02:26.119Z,5.50
2018-08-20T03:04:54.588Z,5.83
2018-08-20T03:07:23.033Z,5.60
2018-08-20T03:09:51.495Z,5.57
2018-08-20T03:12:19.976Z,5.87
2018-08-20T03:14:48.494Z,5.90
2018-08-20T03:17:16.999Z,5.20
2018-08-20T03:19:45.503Z,5.60
2018-08-20T03:22:14.003Z,5.27
2018-08-20T03:24:42.484Z,6.23
2018-08-20T03:27:11.022Z,5.63
2018-08-20T03:29:39.532Z,6.07
2018-08-20T03:32:08.000Z,5.90
2018-08-20T03:34:36.479Z,6.07
2018-08-20T03:37:05.083Z,6.17
2018-08-20T03:39:33.622Z,5.40
2018-08-20T03:42:02.359Z,6.10
2018-08-20T03:44:30.828Z,5.73
2018-08-20T03:46:59.451Z,5.67
2018-08-20T03:49:27.912Z,5.53
2018-08-20T03:51:56.415Z,5.60
2018-08-20T03:54:24.868Z,5.83
2018-08-20T03:56:53.381Z,5.93
2018-08-20T03:59:30.371Z,6.17
2018-08-20T04:01:59.404Z,5.97
2018-08-20T04:04:28.259Z,6.40
2018-08-20T04:06:57.169Z,6.50
2018-08-20T04:09:25.623Z,6.50
2018-08-20T04:11:54.068Z,6.43
2018-08-20T04:14:22.564Z,6.70
2018-08-20T04:16:51.260Z,6.80
2018-08-20T04:19:19.716Z,6.90
2018-08-20T04:21:48.550Z,6.60
2018-08-20T04:24:17.505Z,6.97
2018-08-20T04:26:46.026Z,7.40
2018-08-20T04:29:14.540Z,6.60
2018-08-20T04:31:43.032Z,5.60
2018-08-20T04:34:11.614Z,6.70
2018-08-20T04:36:40.305Z,6.50
2018-08-20T04:39:09.361Z,6.90
2018-08-20T04:41:37.929Z,6.10
2018-08-20T04:44:06.437Z,5.97
2018-08-20T04:46:34.928Z,6.60
2018-08-20T04:49:03.456Z,6.20
2018-08-20T04:51:32.338Z,6.33
2018-08-20T04:54:00.761Z,6.63
2018-08-20T04:56:29.320Z,6.50
2018-08-20T04:58:57.768Z,7.10
2018-08-20T05:01:26.245Z,7.17
2018-08-20T05:03:54.790Z,6.77
2018-08-20T05:06:23.319Z,6.47
2018-08-20T05:08:51.876Z,6.30
2018-08-20T05:11:20.361Z,6.37
2018-08-20T05:13:48.887Z,5.87
2018-08-20T05:16:17.375Z,6.07
2018-08-20T05:18:45.861Z,6.33
2018-08-20T05:21:14.340Z,6.33
2018-08-20T05:23:42.804Z,6.13
2018-08-20T05:26:11.307Z,5.83
2018-08-20T05:28:39.772Z,6.60
2018-08-20T05:31:08.264Z,5.97
2018-08-20T05:33:36.710Z,6.67
2018-08-20T05:36:05.413Z,6.63
2018-08-20T05:38:33.914Z,5.53
2018-08-20T05:41:02.428Z,6.43
2018-08-20T05:43:30.890Z,6.63
2018-08-20T05:45:59.577Z,6.33
2018-08-20T05:48:28.035Z,6.13
2018-08-20T05:50:56.532Z,6.63
2018-08-20T05:53:25.065Z,7.53
2018-08-20T05:55:53.644Z,10.97
2018-08-20T05:58:22.224Z,10.67
2018-08-20T06:00:50.712Z,10.97
2018-08-20T06:03:19.296Z,12.40
2018-08-20T06:05:47.869Z,8.20
2018-08-20T06:08:16.404Z,8.97
2018-08-20T06:10:44.898Z,6.90
2018-08-20T06:13:13.450Z,6.43
2018-08-20T06:15:41.963Z,6.13
2018-08-20T06:18:10.558Z,6.20
2018-08-20T06:20:39.070Z,6.27
2018-08-20T06:23:07.641Z,6.20
2018-08-20T06:25:36.208Z,6.10
2018-08-20T06:28:04.746Z,6.63
2018-08-20T06:30:33.287Z,12.50
2018-08-20T06:33:01.877Z,26.03
2018-08-20T06:35:30.544Z,17.60
2018-08-20T06:37:59.045Z,13.77
2018-08-20T06:40:27.626Z,9.97
2018-08-20T06:42:56.963Z,8.97
2018-08-20T06:45:26.432Z,12.03
2018-08-20T06:47:54.908Z,8.70
2018-08-20T06:50:23.489Z,8.90
2018-08-20T06:52:52.109Z,11.80
2018-08-20T06:55:23.765Z,8.23
2018-08-20T06:57:56.635Z,7.47
2018-08-20T07:00:29.478Z,8.80
2018-08-20T07:03:02.234Z,13.77
2018-08-20T07:05:34.540Z,14.53
2018-08-20T07:08:06.868Z,16.83
2018-08-20T07:10:55.802Z,8.53
2018-08-20T07:13:31.232Z,9.77
2018-08-20T07:16:03.437Z,13.27
2018-08-20T07:18:36.641Z,10.77
2018-08-20T07:21:08.256Z,12.40
2018-08-20T07:23:40.461Z,12.57
2018-08-20T07:26:12.149Z,15.93
2018-08-20T07:28:44.052Z,10.87
2018-08-20T07:31:16.407Z,8.27
2018-08-20T07:33:48.861Z,7.87
2018-08-20T07:36:21.912Z,8.50
2018-08-20T07:38:54.484Z,7.63
2018-08-20T07:41:26.590Z,8.17
2018-08-20T07:43:58.423Z,10.17
2018-08-20T07:46:31.840Z,43.97
2018-08-20T07:49:10.874Z,19.17
2018-08-20T07:51:43.476Z,33.17
2018-08-20T07:54:16.392Z,19.00
2018-08-20T07:56:49.398Z,12.33
2018-08-20T07:59:22.544Z,11.50
2018-08-20T08:01:55.937Z,12.98
2018-08-20T08:04:29.425Z,14.47
2018-08-20T08:07:01.002Z,10.85
2018-08-20T08:09:36.267Z,13.87
2018-08-20T08:12:09.063Z,11.12
2018-08-20T08:14:38.165Z,10.85
2018-08-20T08:17:06.736Z,12.40
2018-08-20T08:19:39.716Z,11.60
2018-08-20T08:22:11.626Z,14.40
2018-08-20T08:24:43.541Z,11.57
2018-08-20T08:27:15.085Z,11.03
2018-08-20T08:29:46.705Z,13.80
2018-08-20T08:32:18.310Z,11.95
2018-08-20T08:34:50.449Z,11.10
2018-08-20T08:37:23.003Z,8.68
2018-08-20T08:39:55.599Z,8.33
2018-08-20T08:42:27.290Z,7.13
2018-08-20T08:44:59.552Z,7.07
2018-08-20T08:47:31.880Z,7.93
2018-08-20T08:50:03.879Z,8.67
2018-08-20T08:52:36.080Z,8.97
2018-08-20T08:55:09.075Z,9.67
2018-08-20T08:57:40.544Z,9.30
2018-08-20T09:00:14.266Z,10.00
2018-08-20T09:02:45.465Z,8.83
2018-08-20T09:05:18.362Z,9.70
2018-08-20T09:07:50.580Z,9.80
2018-08-20T09:10:22.536Z,8.10
2018-08-20T09:12:57.401Z,8.40
2018-08-20T09:15:28.781Z,8.77
2018-08-20T09:18:01.474Z,9.60
2018-08-20T09:20:33.648Z,7.57
2018-08-20T09:23:05.295Z,8.63
2018-08-20T09:25:37.477Z,8.83
2018-08-20T09:28:08.800Z,8.23
2018-08-20T09:30:41.698Z,7.40
2018-08-20T09:33:13.533Z,7.90
2018-08-20T09:35:45.379Z,7.12
2018-08-20T09:38:17.357Z,6.07
2018-08-20T09:40:49.049Z,6.40
2018-08-20T09:43:22.068Z,5.03
2018-08-20T09:45:54.908Z,6.33
2018-08-20T09:48:27.934Z,5.73
2018-08-20T09:51:00.156Z,6.10
2018-08-20T09:53:32.524Z,5.50
2018-08-20T09:56:05.056Z,6.60
2018-08-20T09:58:41.500Z,6.30
2018-08-20T10:01:14.438Z,6.33
2018-08-20T10:03:47.635Z,5.87
2018-08-20T10:06:19.144Z,5.25
2018-08-20T10:08:51.237Z,5.30
2018-08-20T10:11:23.269Z,5.72
2018-08-20T10:13:55.991Z,5.97
2018-08-20T10:16:27.885Z,6.00
2018-08-20T10:18:59.344Z,6.33
2018-08-20T10:21:30.777Z,5.70
2018-08-20T10:24:02.845Z,6.00
2018-08-20T10:26:35.299Z,5.47
2018-08-20T10:29:07.992Z,5.47
2018-08-20T10:31:40.020Z,6.10
2018-08-20T10:34:12.189Z,5.85
2018-08-20T10:36:44.890Z,5.70
2018-08-20T10:39:16.755Z,6.03
2018-08-20T10:41:48.046Z,5.97
2018-08-20T10:44:20.849Z,5.72
2018-08-20T10:46:52.796Z,5.47
2018-08-20T10:49:25.000Z,5.20
2018-08-20T10:51:57.592Z,6.20
2018-08-20T10:54:30.397Z,5.80
2018-08-20T10:57:02.308Z,5.80
2018-08-20T10:59:34.579Z,5.60
2018-08-20T11:02:06.710Z,7.10
2018-08-20T11:04:39.361Z,5.93
2018-08-20T11:07:11.093Z,5.60
2018-08-20T11:09:43.163Z,5.70
2018-08-20T11:12:14.372Z,5.50
2018-08-20T11:14:46.812Z,5.43
2018-08-20T11:17:18.516Z,6.70
2018-08-20T11:19:52.890Z,6.07
2018-08-20T11:22:26.357Z,6.20
2018-08-20T11:24:58.639Z,6.10
2018-08-20T11:27:30.565Z,5.63
2018-08-20T11:30:03.308Z,6.10
2018-08-20T11:32:34.380Z,5.47
2018-08-20T11:35:05.436Z,5.70
2018-08-20T11:37:37.235Z,5.53
2018-08-20T11:40:08.975Z,5.40
2018-08-20T11:42:41.338Z,6.17
2018-08-20T11:45:14.463Z,5.37
2018-08-20T11:47:47.077Z,5.23
2018-08-20T11:50:19.771Z,5.50
2018-08-20T11:52:52.317Z,5.75
2018-08-20T11:55:24.884Z,5.50
2018-08-20T11:57:56.329Z,6.42
2018-08-20T12:00:27.865Z,6.22
2018-08-20T12:03:00.250Z,6.20
2018-08-20T12:05:32.868Z,6.40
2018-08-20T12:08:05.062Z,6.22
2018-08-20T12:10:37.145Z,6.20
2018-08-20T12:13:10.122Z,5.83
2018-08-20T12:15:42.556Z,5.83
2018-08-20T12:18:13.811Z,6.37
2018-08-20T12:20:45.855Z,5.50
2018-08-20T12:23:18.799Z,6.28
2018-08-20T12:25:51.211Z,5.60
2018-08-20T12:28:22.752Z,5.62
2018-08-20T12:30:55.572Z,6.00
2018-08-20T12:33:27.187Z,5.47
2018-08-20T12:35:59.336Z,6.10
2018-08-20T12:38:31.735Z,5.72
2018-08-20T12:41:04.562Z,6.03
2018-08-20T12:43:36.287Z,5.58
2018-08-20T12:46:09.446Z,5.60
2018-08-20T12:48:41.589Z,5.95
2018-08-20T12:51:13.681Z,6.00
2018-08-20T12:53:45.965Z,6.15
2018-08-20T12:56:19.083Z,5.87
2018-08-20T12:58:53.768Z,6.17
2018-08-20T13:01:25.375Z,6.05
2018-08-20T13:03:58.080Z,5.72
2018-08-20T13:06:29.419Z,5.60
2018-08-20T13:09:01.941Z,5.70
2018-08-20T13:11:33.651Z,5.72
2018-08-20T13:14:05.562Z,76.92
2018-08-20T13:16:37.859Z,44.98
2018-08-20T13:19:09.654Z,37.48
2018-08-20T13:21:41.683Z,89.77
2018-08-20T13:24:13.784Z,63.00
2018-08-20T13:26:46.223Z,63.08
2018-08-20T13:29:18.037Z,35.00
2018-08-20T13:31:49.394Z,17.12
2018-08-20T13:34:20.818Z,13.58
2018-08-20T13:36:53.654Z,9.25
2018-08-20T13:39:26.188Z,6.57
2018-08-20T13:41:57.882Z,13.08
2018-08-20T13:44:31.188Z,8.27
2018-08-20T13:47:02.897Z,6.67
2018-08-20T13:49:34.698Z,6.25
2018-08-20T13:52:06.499Z,10.32
2018-08-20T13:54:39.099Z,5.35
2018-08-20T13:57:11.367Z,8.75
2018-08-20T13:59:43.476Z,6.83
2018-08-20T14:02:17.312Z,8.60
2018-08-20T14:04:51.691Z,64.85
2018-08-20T14:07:54.683Z,39.67
2018-08-20T14:10:26.842Z,81.10
2018-08-20T14:12:58.857Z,50.45
2018-08-20T14:15:31.776Z,49.00
2018-08-20T14:18:04.055Z,19.90
2018-08-20T14:20:35.805Z,12.47
2018-08-20T14:23:08.317Z,8.83
2018-08-20T14:25:39.759Z,5.78
2018-08-20T14:28:10.698Z,7.50
2018-08-20T14:30:42.450Z,8.38
2018-08-20T14:33:14.222Z,5.58
2018-08-20T14:35:46.162Z,5.05
2018-08-20T14:38:18.117Z,6.10
2018-08-20T14:40:50.304Z,5.47
2018-08-20T14:43:22.774Z,5.30
2018-08-20T14:45:59.353Z,5.78
2018-08-20T14:48:30.240Z,4.67
2018-08-20T14:51:02.358Z,5.12
2018-08-20T14:53:33.011Z,7.70
2018-08-20T14:56:03.458Z,4.75
2018-08-20T14:58:34.283Z,4.35
2018-08-20T15:01:04.965Z,4.95
2018-08-20T15:03:35.293Z,4.70
2018-08-20T15:06:05.620Z,5.15
2018-08-20T15:08:38.204Z,4.40
2018-08-20T15:11:09.428Z,4.80
2018-08-20T15:13:40.443Z,4.15
2018-08-20T15:16:11.411Z,4.22
2018-08-20T15:18:42.273Z,4.92
2018-08-20T15:21:13.284Z,5.08
2018-08-20T15:23:44.118Z,4.90
2018-08-20T15:26:15.198Z,4.33
2018-08-20T15:28:46.093Z,4.20
2018-08-20T15:31:16.802Z,3.67
2018-08-20T15:33:47.639Z,3.90
2018-08-20T15:36:18.277Z,3.92
2018-08-20T15:38:48.976Z,4.22
2018-08-20T15:41:19.910Z,4.05
2018-08-20T15:43:51.184Z,3.52
2018-08-20T15:46:22.303Z,3.75
2018-08-20T15:48:53.153Z,4.22
2018-08-20T15:51:24.125Z,4.00
2018-08-20T15:53:54.774Z,3.87
2018-08-20T15:56:25.592Z,3.83
2018-08-20T15:58:56.611Z,4.03
2018-08-20T16:01:27.258Z,3.83
2018-08-20T16:03:57.932Z,3.90
2018-08-20T16:06:28.624Z,3.60
2018-08-20T16:08:59.461Z,4.00
2018-08-20T16:11:30.295Z,3.77
2018-08-20T16:14:02.130Z,3.60
2018-08-20T16:16:32.867Z,3.02
2018-08-20T16:19:04.011Z,3.87
2018-08-20T16:21:34.936Z,4.00
2018-08-20T16:24:05.783Z,3.62
2018-08-20T16:26:36.773Z,3.40
2018-08-20T16:29:07.779Z,3.10
2018-08-20T16:31:40.126Z,3.40
2018-08-20T16:34:11.191Z,2.83
2018-08-20T16:36:42.323Z,2.80
2018-08-20T16:39:14.269Z,3.45
2018-08-20T16:41:45.163Z,3.92
2018-08-20T16:44:17.272Z,3.72
2018-08-20T16:46:45.896Z,3.72
2018-08-20T16:49:14.460Z,3.20
2018-08-20T16:51:46.743Z,2.87
2018-08-20T16:54:19.573Z,3.17
2018-08-20T16:56:51.721Z,3.70
2018-08-20T16:59:23.779Z,3.25
2018-08-20T17:01:56.507Z,2.52
2018-08-20T17:04:34.414Z,3.47
2018-08-20T17:07:05.721Z,3.50
2018-08-20T17:09:37.432Z,3.45
2018-08-20T17:12:09.233Z,3.50
2018-08-20T17:14:41.536Z,25.05
2018-08-20T17:17:13.086Z,84.03
2018-08-20T17:19:45.085Z,52.00
2018-08-20T17:22:22.741Z,21.77
2018-08-20T17:24:58.024Z,24.92
2018-08-20T17:27:29.801Z,40.15
2018-08-20T17:30:04.090Z,29.90
2018-08-20T17:32:37.317Z,19.20
2018-08-20T17:35:13.115Z,20.82
2018-08-20T17:37:45.010Z,16.62
2018-08-20T17:40:17.180Z,7.30
2018-08-20T17:42:49.010Z,11.35
2018-08-20T17:45:25.231Z,13.78
2018-08-20T17:48:03.399Z,7.47
2018-08-20T17:50:40.769Z,10.78
2018-08-20T17:53:12.630Z,11.40
2018-08-20T17:55:43.862Z,5.42
2018-08-20T17:58:16.371Z,6.60
2018-08-20T18:00:53.974Z,57.27
2018-08-20T18:03:31.176Z,40.65
2018-08-20T18:06:03.953Z,41.65
2018-08-20T18:08:37.665Z,31.68
2018-08-20T18:11:09.869Z,36.80
2018-08-20T18:13:46.601Z,14.05
2018-08-20T18:16:20.654Z,18.52
2018-08-20T18:18:53.421Z,25.55
2018-08-20T18:21:26.489Z,13.32
2018-08-20T18:23:58.560Z,19.48
2018-08-20T18:26:39.169Z,10.78
2018-08-20T18:29:11.183Z,10.72
2018-08-20T18:31:43.109Z,9.65
2018-08-20T18:34:15.412Z,8.28
2018-08-20T18:36:47.331Z,10.70
2018-08-20T18:39:20.444Z,13.50
2018-08-20T18:41:53.065Z,8.95
2018-08-20T18:44:25.376Z,11.65
2018-08-20T18:46:58.714Z,7.37
2018-08-20T18:49:31.238Z,7.55
2018-08-20T18:52:13.190Z,6.80
2018-08-20T18:54:53.350Z,6.65
2018-08-20T18:57:25.078Z,10.25
2018-08-20T18:59:57.169Z,6.83
2018-08-20T19:03:03.712Z,5.40
2018-08-20T19:05:47.073Z,6.75
2018-08-20T19:08:25.116Z,4.00
2018-08-20T19:10:58.532Z,4.83
2018-08-20T19:13:30.353Z,6.97
2018-08-20T19:16:02.377Z,8.88
2018-08-20T19:18:39.227Z,7.20
2018-08-20T19:21:19.983Z,5.12
2018-08-20T19:23:52.594Z,8.50
2018-08-20T19:26:24.721Z,4.42
2018-08-20T19:28:56.441Z,3.83
2018-08-20T19:31:28.258Z,4.75
2018-08-20T19:34:00.971Z,4.50
2018-08-20T19:36:29.856Z,4.00
2018-08-20T19:39:00.911Z,5.45
2018-08-20T19:41:32.736Z,5.97
2018-08-20T19:44:04.473Z,4.83
2018-08-20T19:46:39.256Z,4.92
2018-08-20T19:49:14.308Z,5.27
2018-08-20T19:51:47.763Z,5.25
2018-08-20T19:54:19.995Z,4.28
2018-08-20T19:56:52.428Z,4.60
2018-08-20T19:59:28.403Z,3.80
2018-08-20T20:02:00.252Z,4.53
2018-08-20T20:04:32.430Z,3.90
2018-08-20T20:07:05.098Z,3.50
2018-08-20T20:09:38.721Z,3.53
2018-08-20T20:12:11.647Z,3.90
2018-08-20T20:14:48.164Z,3.65
2018-08-20T20:17:20.466Z,3.33
2018-08-20T20:19:52.751Z,3.52
2018-08-20T20:22:25.328Z,3.12
2018-08-20T20:24:57.301Z,3.35
2018-08-20T20:27:29.562Z,3.10
2018-08-20T20:30:02.037Z,3.07
2018-08-20T20:32:34.398Z,3.07
2018-08-20T20:35:07.373Z,2.72
2018-08-20T20:37:39.368Z,3.10
2018-08-20T20:40:12.163Z,3.00
2018-08-20T20:42:43.387Z,3.08
2018-08-20T20:45:14.544Z,3.20
2018-08-20T20:47:46.289Z,3.13
2018-08-20T20:50:17.968Z,3.90
2018-08-20T20:52:49.375Z,3.73
2018-08-20T20:55:20.809Z,3.53
2018-08-20T20:57:52.117Z,7.30
2018-08-20T21:00:24.671Z,25.30
2018-08-20T21:03:02.430Z,24.27
2018-08-20T21:05:33.799Z,22.00
2018-08-20T21:08:06.312Z,17.57
2018-08-20T21:10:43.394Z,12.70
2018-08-20T21:13:15.429Z,12.70
2018-08-20T21:15:53.394Z,39.10
2018-08-20T21:18:24.405Z,57.00
2018-08-20T21:20:56.183Z,34.27
2018-08-20T21:23:30.658Z,33.60
2018-08-20T21:26:01.984Z,22.57
2018-08-20T21:28:40.844Z,19.17
2018-08-20T21:31:13.218Z,17.70
2018-08-20T21:33:45.446Z,7.70
2018-08-20T21:36:17.735Z,10.10
2018-08-20T21:38:51.029Z,8.30
2018-08-20T21:41:25.698Z,7.70
2018-08-20T21:43:57.442Z,6.23
2018-08-20T21:46:29.307Z,6.27
2018-08-20T21:49:01.000Z,6.07
2018-08-20T21:51:37.712Z,6.00
2018-08-20T21:54:08.760Z,4.87
2018-08-20T21:56:44.939Z,6.77
2018-08-20T21:59:17.149Z,5.33
2018-08-20T22:01:48.793Z,4.50
2018-08-20T22:04:21.242Z,5.37
2018-08-20T22:06:53.139Z,6.67
2018-08-20T22:09:24.629Z,5.60
2018-08-20T22:11:58.407Z,5.90
2018-08-20T22:14:31.026Z,5.40
2018-08-20T22:17:02.347Z,5.87
2018-08-20T22:19:33.730Z,6.20
2018-08-20T22:22:05.090Z,18.87
2018-08-20T22:24:38.399Z,67.07
2018-08-20T22:27:10.454Z,83.77
2018-08-20T22:29:46.676Z,64.87
2018-08-20T22:32:18.226Z,40.30
2018-08-20T22:34:50.101Z,32.60
2018-08-20T22:37:21.786Z,21.83
2018-08-20T22:39:58.811Z,12.80
2018-08-20T22:42:40.511Z,10.73
2018-08-20T22:45:17.111Z,7.37
2018-08-20T22:47:49.672Z,8.50
2018-08-20T22:50:22.624Z,7.17
2018-08-20T22:52:55.670Z,6.60
2018-08-20T22:55:27.646Z,5.40
2018-08-20T22:58:05.155Z,5.70
2018-08-20T23:00:37.094Z,5.10
2018-08-20T23:03:09.395Z,5.30
2018-08-20T23:05:40.852Z,4.97
2018-08-20T23:08:19.153Z,4.70
2018-08-20T23:10:50.885Z,5.40
2018-08-20T23:13:23.321Z,5.60
2018-08-20T23:15:55.568Z,4.97
2018-08-20T23:18:27.690Z,5.00
2018-08-20T23:20:59.846Z,4.83
2018-08-20T23:23:35.542Z,5.20
2018-08-20T23:26:08.571Z,4.70
2018-08-20T23:28:41.793Z,4.50
2018-08-20T23:31:13.893Z,4.50
2018-08-20T23:33:45.817Z,4.40
2018-08-20T23:36:17.205Z,5.00
2018-08-20T23:38:48.962Z,4.47
2018-08-20T23:41:21.316Z,5.47
2018-08-20T23:43:56.491Z,4.83
2018-08-20T23:46:32.514Z,4.70
2018-08-20T23:49:04.454Z,4.53
2018-08-20T23:51:41.855Z,4.60
2018-08-20T23:54:14.788Z,4.60
2018-08-20T23:56:46.114Z,4.40
2018-08-20T23:59:18.229Z,4.83
